createdAt,value
2018-05-18T00:01:14.277Z,99.90
2018-05-18T00:03:40.918Z,99.90
2018-05-18T00:06:07.205Z,99.90
2018-05-18T00:08:34.257Z,99.90
2018-05-18T00:11:00.882Z,99.90
2018-05-18T00:13:27.469Z,99.90
2018-05-18T00:15:53.938Z,99.90
2018-05-18T00:18:20.650Z,99.90
2018-05-18T00:20:47.363Z,99.90
2018-05-18T00:23:13.790Z,99.90
2018-05-18T00:25:40.125Z,99.90
2018-05-18T00:28:06.438Z,99.90
2018-05-18T00:30:32.740Z,99.90
2018-05-18T00:33:00.019Z,99.90
2018-05-18T00:35:26.286Z,99.90
2018-05-18T00:37:52.571Z,99.90
2018-05-18T00:40:19.005Z,99.90
2018-05-18T00:42:45.302Z,99.90
2018-05-18T00:45:11.613Z,99.90
2018-05-18T00:47:37.925Z,99.90
2018-05-18T00:50:04.267Z,99.90
2018-05-18T00:52:30.572Z,99.90
2018-05-18T00:54:57.586Z,99.90
2018-05-18T00:57:23.982Z,99.90
2018-05-18T00:59:50.301Z,99.90
2018-05-18T01:02:17.291Z,99.90
2018-05-18T01:04:43.597Z,99.90
2018-05-18T01:07:09.861Z,99.90
2018-05-18T01:09:36.219Z,99.90
2018-05-18T01:12:02.554Z,99.90
2018-05-18T01:14:28.877Z,99.90
2018-05-18T01:16:55.184Z,99.90
2018-05-18T01:19:22.329Z,99.90
2018-05-18T01:21:48.633Z,99.90
2018-05-18T01:24:14.921Z,99.90
2018-05-18T01:26:41.258Z,99.90
2018-05-18T01:29:07.544Z,99.90
2018-05-18T01:31:33.841Z,99.90
2018-05-18T01:34:00.858Z,99.90
2018-05-18T01:36:27.100Z,99.90
2018-05-18T01:38:53.398Z,99.90
2018-05-18T01:41:20.505Z,99.90
2018-05-18T01:43:46.814Z,99.90
2018-05-18T01:46:13.135Z,99.90
2018-05-18T01:48:39.418Z,99.90
2018-05-18T01:51:05.720Z,99.90
2018-05-18T01:53:32.755Z,99.90
2018-05-18T01:55:59.011Z,99.90
2018-05-18T01:58:25.269Z,99.90
2018-05-18T02:00:51.562Z,99.90
2018-05-18T02:03:17.846Z,99.90
2018-05-18T02:05:44.162Z,99.90
2018-05-18T02:08:10.488Z,99.90
2018-05-18T02:10:36.798Z,99.90
2018-05-18T02:13:03.086Z,99.90
2018-05-18T02:15:30.124Z,99.90
2018-05-18T02:17:56.408Z,99.90
2018-05-18T02:20:22.749Z,99.90
2018-05-18T02:22:49.053Z,99.90
2018-05-18T02:25:16.084Z,99.90
2018-05-18T02:27:42.381Z,99.90
2018-05-18T02:30:09.398Z,99.90
2018-05-18T02:32:36.400Z,99.90
2018-05-18T02:35:02.697Z,99.90
2018-05-18T02:37:29.017Z,99.90
2018-05-18T02:39:55.301Z,99.90
2018-05-18T02:42:22.406Z,99.90
2018-05-18T02:44:48.725Z,99.90
2018-05-18T02:47:15.001Z,99.90
2018-05-18T02:49:41.265Z,99.90
2018-05-18T02:52:07.543Z,99.90
2018-05-18T02:54:33.817Z,99.90
2018-05-18T02:57:00.165Z,99.90
2018-05-18T02:59:27.989Z,99.90
2018-05-18T03:01:54.297Z,99.90
2018-05-18T03:04:20.541Z,99.90
2018-05-18T03:06:47.566Z,99.90
2018-05-18T03:09:14.363Z,99.90
2018-05-18T03:11:41.360Z,99.90
2018-05-18T03:14:07.664Z,99.90
2018-05-18T03:16:34.014Z,99.90
2018-05-18T03:19:00.313Z,99.90
2018-05-18T03:21:26.729Z,99.90
2018-05-18T03:23:53.001Z,99.90
2018-05-18T03:26:19.408Z,99.90
2018-05-18T03:28:45.717Z,99.90
2018-05-18T03:31:12.059Z,99.90
2018-05-18T03:33:38.348Z,99.90
2018-05-18T03:36:05.511Z,99.90
2018-05-18T03:38:32.594Z,99.90
2018-05-18T03:40:59.076Z,99.90
2018-05-18T03:43:26.175Z,99.90
2018-05-18T03:45:52.545Z,99.90
2018-05-18T03:48:18.994Z,99.90
2018-05-18T03:50:45.304Z,99.90
2018-05-18T03:53:11.599Z,99.90
2018-05-18T03:55:48.293Z,99.90
2018-05-18T03:58:15.391Z,99.90
2018-05-18T04:00:41.701Z,99.90
2018-05-18T04:03:20.416Z,99.90
2018-05-18T04:05:59.139Z,99.90
2018-05-18T04:08:52.311Z,99.90
2018-05-18T04:11:18.626Z,99.90
2018-05-18T04:13:46.099Z,99.90
2018-05-18T04:16:13.489Z,99.90
2018-05-18T04:18:41.152Z,99.90
2018-05-18T04:21:08.962Z,99.90
2018-05-18T04:23:36.373Z,99.90
2018-05-18T04:26:03.428Z,99.90
2018-05-18T04:28:30.758Z,99.90
2018-05-18T04:30:57.068Z,99.90
2018-05-18T04:33:23.557Z,99.90
2018-05-18T04:35:50.645Z,99.90
2018-05-18T04:38:16.963Z,99.90
2018-05-18T04:40:43.929Z,99.90
2018-05-18T04:43:10.449Z,99.90
2018-05-18T04:45:36.732Z,99.90
2018-05-18T04:48:03.137Z,99.90
2018-05-18T04:50:29.463Z,99.90
2018-05-18T04:52:56.356Z,99.90
2018-05-18T04:55:22.920Z,99.90
2018-05-18T04:57:49.353Z,99.90
2018-05-18T05:00:15.733Z,99.90
2018-05-18T05:02:42.081Z,99.90
2018-05-18T05:05:09.123Z,99.90
2018-05-18T05:07:36.001Z,99.90
2018-05-18T05:10:03.004Z,99.90
2018-05-18T05:12:30.069Z,99.90
2018-05-18T05:14:57.228Z,99.90
2018-05-18T05:17:23.657Z,99.90
2018-05-18T05:19:50.904Z,99.90
2018-05-18T05:22:17.334Z,99.90
2018-05-18T05:24:44.498Z,99.90
2018-05-18T05:27:11.909Z,99.90
2018-05-18T05:29:38.817Z,99.90
2018-05-18T05:32:05.897Z,99.90
2018-05-18T05:34:32.953Z,99.90
2018-05-18T05:37:00.274Z,99.90
2018-05-18T05:39:27.417Z,99.90
2018-05-18T05:41:54.811Z,99.90
2018-05-18T05:44:21.183Z,99.90
2018-05-18T05:46:47.560Z,99.90
2018-05-18T05:49:13.871Z,99.90
2018-05-18T05:51:40.448Z,99.90
2018-05-18T05:54:06.769Z,99.90
2018-05-18T05:56:33.383Z,99.90
2018-05-18T05:59:00.265Z,99.90
2018-05-18T06:01:26.534Z,99.90
2018-05-18T06:03:52.840Z,99.90
2018-05-18T06:06:19.286Z,99.90
2018-05-18T06:08:46.489Z,99.90
2018-05-18T06:11:12.965Z,99.90
2018-05-18T06:13:39.276Z,99.90
2018-05-18T06:16:06.046Z,99.90
2018-05-18T06:18:32.661Z,99.90
2018-05-18T06:20:59.525Z,99.90
2018-05-18T06:23:26.757Z,99.90
2018-05-18T06:25:54.077Z,99.90
2018-05-18T06:28:20.661Z,99.90
2018-05-18T06:30:47.054Z,99.90
2018-05-18T06:33:13.679Z,99.90
2018-05-18T06:35:41.117Z,99.90
2018-05-18T06:38:07.522Z,99.90
2018-05-18T06:40:33.917Z,99.90
2018-05-18T06:43:00.756Z,99.90
2018-05-18T06:45:27.049Z,99.90
2018-05-18T06:47:53.368Z,99.90
2018-05-18T06:50:19.905Z,99.90
2018-05-18T06:52:46.205Z,99.90
2018-05-18T06:55:13.823Z,99.90
2018-05-18T06:57:40.339Z,99.90
2018-05-18T07:00:07.474Z,99.90
2018-05-18T07:02:34.720Z,99.90
2018-05-18T07:05:01.210Z,99.90
2018-05-18T07:07:27.822Z,99.90
2018-05-18T07:09:54.694Z,99.90
2018-05-18T07:12:21.077Z,99.90
2018-05-18T07:14:48.053Z,99.90
2018-05-18T07:17:15.525Z,99.90
2018-05-18T07:19:41.893Z,99.90
2018-05-18T07:22:09.004Z,99.90
2018-05-18T07:24:35.418Z,99.90
2018-05-18T07:27:01.709Z,99.90
2018-05-18T07:29:28.020Z,99.90
2018-05-18T07:31:54.478Z,99.90
2018-05-18T07:34:20.837Z,99.90
2018-05-18T07:36:48.230Z,99.90
2018-05-18T07:39:14.704Z,99.90
2018-05-18T07:41:40.970Z,99.90
2018-05-18T07:44:07.796Z,99.90
2018-05-18T07:46:34.355Z,99.90
2018-05-18T07:49:02.296Z,99.90
2018-05-18T07:51:29.327Z,99.90
2018-05-18T07:53:56.189Z,99.90
2018-05-18T07:56:23.226Z,99.90
2018-05-18T07:58:49.781Z,99.90
2018-05-18T08:01:16.383Z,99.90
2018-05-18T08:03:42.962Z,99.90
2018-05-18T08:06:10.354Z,99.90
2018-05-18T08:08:36.651Z,99.90
2018-05-18T08:11:02.977Z,99.90
2018-05-18T08:13:29.299Z,99.90
2018-05-18T08:15:57.723Z,99.90
2018-05-18T08:18:24.282Z,99.90
2018-05-18T08:20:51.542Z,99.90
2018-05-18T08:23:17.973Z,99.90
2018-05-18T08:25:44.322Z,99.90
2018-05-18T08:28:10.666Z,99.90
2018-05-18T08:30:49.584Z,99.90
2018-05-18T08:33:16.954Z,99.90
2018-05-18T08:35:43.706Z,99.90
2018-05-18T08:38:11.257Z,99.90
2018-05-18T08:40:37.681Z,99.90
2018-05-18T08:43:04.017Z,99.90
2018-05-18T08:45:30.342Z,99.90
2018-05-18T08:47:57.119Z,99.90
2018-05-18T08:50:24.966Z,99.90
2018-05-18T08:52:51.179Z,99.90
2018-05-18T08:55:18.458Z,99.90
2018-05-18T08:57:45.175Z,99.90
2018-05-18T09:00:11.687Z,99.90
2018-05-18T09:02:38.283Z,99.90
2018-05-18T09:05:04.702Z,99.90
2018-05-18T09:07:30.997Z,99.90
2018-05-18T09:09:57.321Z,99.90
2018-05-18T09:12:23.636Z,99.90
2018-05-18T09:14:49.937Z,99.90
2018-05-18T09:17:16.266Z,99.90
2018-05-18T09:19:42.514Z,99.90
2018-05-18T09:22:08.838Z,99.90
2018-05-18T09:24:35.150Z,99.90
2018-05-18T09:27:02.231Z,99.90
2018-05-18T09:29:29.290Z,99.90
2018-05-18T09:31:55.702Z,99.90
2018-05-18T09:34:22.033Z,99.90
2018-05-18T09:36:49.105Z,99.90
2018-05-18T09:39:15.393Z,99.90
2018-05-18T09:41:41.741Z,99.90
2018-05-18T09:44:08.020Z,99.90
2018-05-18T09:46:34.349Z,99.90
2018-05-18T09:49:00.820Z,99.90
2018-05-18T09:51:27.131Z,99.90
2018-05-18T09:53:53.380Z,99.90
2018-05-18T09:56:19.705Z,99.90
2018-05-18T09:58:46.001Z,99.90
2018-05-18T10:01:12.295Z,99.90
2018-05-18T10:03:38.549Z,99.90
2018-05-18T10:06:04.889Z,99.90
2018-05-18T10:08:32.067Z,99.90
2018-05-18T10:10:58.395Z,99.90
2018-05-18T10:13:26.875Z,99.90
2018-05-18T10:15:53.274Z,99.90
2018-05-18T10:18:20.341Z,99.90
2018-05-18T10:20:46.626Z,99.90
2018-05-18T10:23:12.826Z,99.90
2018-05-18T10:25:39.175Z,99.90
2018-05-18T10:28:05.503Z,99.90
2018-05-18T10:30:32.679Z,99.90
2018-05-18T10:32:58.971Z,99.90
2018-05-18T10:35:25.241Z,99.90
2018-05-18T10:37:51.580Z,99.90
2018-05-18T10:40:18.722Z,99.90
2018-05-18T10:42:45.709Z,99.90
2018-05-18T10:45:12.012Z,99.90
2018-05-18T10:47:38.268Z,99.90
2018-05-18T10:50:05.350Z,99.90
2018-05-18T10:52:31.652Z,99.90
2018-05-18T10:54:58.669Z,99.90
2018-05-18T10:57:24.970Z,99.90
2018-05-18T10:59:51.249Z,99.90
2018-05-18T11:02:17.731Z,99.90
2018-05-18T11:04:44.808Z,99.90
2018-05-18T11:07:11.136Z,99.90
2018-05-18T11:09:37.475Z,99.90
2018-05-18T11:12:04.538Z,99.90
2018-05-18T11:14:31.833Z,99.90
2018-05-18T11:16:58.148Z,99.90
2018-05-18T11:19:24.425Z,99.80
2018-05-18T11:21:50.697Z,99.90
2018-05-18T11:24:17.133Z,99.90
2018-05-18T11:26:43.468Z,99.90
2018-05-18T11:29:09.788Z,99.90
2018-05-18T11:31:36.123Z,99.90
2018-05-18T11:34:03.304Z,99.90
2018-05-18T11:36:29.743Z,99.90
2018-05-18T11:38:56.175Z,99.90
2018-05-18T11:41:22.716Z,99.90
2018-05-18T11:43:49.006Z,99.90
2018-05-18T11:46:16.012Z,99.90
2018-05-18T11:48:42.415Z,99.90
2018-05-18T11:51:08.649Z,99.90
2018-05-18T11:53:35.687Z,99.00
2018-05-18T11:56:02.769Z,99.20
2018-05-18T11:58:29.916Z,97.80
2018-05-18T12:00:56.380Z,97.70
2018-05-18T12:06:25.194Z,97.60
2018-05-18T12:08:52.212Z,98.10
2018-05-18T12:11:18.701Z,98.10
2018-05-18T12:13:45.778Z,98.50
2018-05-18T12:16:12.832Z,98.80
2018-05-18T12:18:39.896Z,98.70
2018-05-18T12:21:06.541Z,98.70
2018-05-18T12:23:33.006Z,98.50
2018-05-18T12:25:59.454Z,99.00
2018-05-18T12:28:26.005Z,99.10
2018-05-18T12:30:53.110Z,97.10
2018-05-18T12:33:20.438Z,97.20
2018-05-18T12:35:46.804Z,97.40
2018-05-18T12:38:13.238Z,97.50
2018-05-18T12:40:39.623Z,97.00
2018-05-18T12:43:06.715Z,97.80
2018-05-18T12:45:32.933Z,97.90
2018-05-18T12:47:59.376Z,97.70
2018-05-18T12:50:25.892Z,97.20
2018-05-18T12:52:53.302Z,96.60
2018-05-18T12:55:19.590Z,96.70
2018-05-18T12:57:45.984Z,96.50
2018-05-18T13:00:13.217Z,96.60
2018-05-18T13:02:39.905Z,96.20
2018-05-18T13:05:06.397Z,96.40
2018-05-18T13:07:33.114Z,96.00
2018-05-18T13:10:00.359Z,96.10
2018-05-18T13:12:26.824Z,96.30
2018-05-18T13:14:53.362Z,96.50
2018-05-18T13:17:19.944Z,95.90
2018-05-18T13:19:46.237Z,96.10
2018-05-18T13:22:13.051Z,95.60
2018-05-18T13:24:39.860Z,95.00
2018-05-18T13:27:06.841Z,94.60
2018-05-18T13:29:33.330Z,93.40
2018-05-18T13:31:59.896Z,93.20
2018-05-18T13:34:27.256Z,94.30
2018-05-18T13:36:53.676Z,94.30
2018-05-18T13:39:20.369Z,93.80
2018-05-18T13:41:47.386Z,93.30
2018-05-18T13:44:14.667Z,92.20
2018-05-18T13:46:40.914Z,92.20
2018-05-18T13:49:07.399Z,92.50
2018-05-18T13:51:34.186Z,92.60
2018-05-18T13:54:00.453Z,92.60
2018-05-18T13:56:26.883Z,93.20
2018-05-18T13:58:53.550Z,93.00
2018-05-18T14:01:20.700Z,92.60
2018-05-18T14:03:47.009Z,92.60
2018-05-18T14:06:14.098Z,93.00
2018-05-18T14:08:40.411Z,93.00
2018-05-18T14:11:07.041Z,93.20
2018-05-18T14:13:33.494Z,92.40
2018-05-18T14:16:00.727Z,92.10
2018-05-18T14:18:27.844Z,92.10
2018-05-18T14:20:54.289Z,91.90
2018-05-18T14:23:20.543Z,91.90
2018-05-18T14:25:47.122Z,91.70
2018-05-18T14:28:13.736Z,91.30
2018-05-18T14:30:40.269Z,90.70
2018-05-18T14:33:06.532Z,91.40
2018-05-18T14:35:33.278Z,90.90
2018-05-18T14:38:00.631Z,88.10
2018-05-18T14:40:27.633Z,88.10
2018-05-18T14:42:55.726Z,85.40
2018-05-18T14:50:55.580Z,84.80
2018-05-18T14:53:21.888Z,84.00
2018-05-18T14:55:48.508Z,82.00
2018-05-18T14:58:16.015Z,82.30
2018-05-18T15:00:42.304Z,82.20
2018-05-18T15:03:08.884Z,82.40
2018-05-18T15:05:35.152Z,80.10
2018-05-18T15:08:02.309Z,82.60
2018-05-18T15:10:29.136Z,82.70
2018-05-18T15:12:56.496Z,81.60
2018-05-18T15:15:22.996Z,81.60
2018-05-18T15:17:50.095Z,80.50
2018-05-18T15:48:47.560Z,82.60
2018-05-18T15:51:20.703Z,83.00
2018-05-18T15:53:53.811Z,84.10
2018-05-18T15:56:26.166Z,84.20
2018-05-18T15:58:58.404Z,83.80
2018-05-18T16:01:31.467Z,83.90
2018-05-18T16:04:04.677Z,84.80
2018-05-18T16:06:37.328Z,84.80
2018-05-18T16:09:09.711Z,84.40
2018-05-18T16:11:41.894Z,83.60
2018-05-18T16:14:14.260Z,84.40
2018-05-18T16:16:46.650Z,84.00
2018-05-18T16:19:18.934Z,83.70
2018-05-18T16:21:51.297Z,84.20
2018-05-18T16:24:23.779Z,84.20
2018-05-18T16:30:06.579Z,83.70
2018-05-18T16:32:39.496Z,83.10
2018-05-18T16:35:11.795Z,83.10
2018-05-18T16:37:44.132Z,82.70
2018-05-18T16:40:17.148Z,82.10
2018-05-18T16:42:49.755Z,82.10
2018-05-18T16:45:22.161Z,82.80
2018-05-18T16:47:54.695Z,82.90
2018-05-18T16:50:28.597Z,82.40
2018-05-18T16:53:01.777Z,83.00
2018-05-18T16:55:34.127Z,82.90
2018-05-18T16:58:06.505Z,83.40
2018-05-18T17:00:38.933Z,84.00
2018-05-18T17:03:12.098Z,85.20
2018-05-18T17:05:44.447Z,85.00
2018-05-18T17:08:16.803Z,84.50
2018-05-18T17:16:59.811Z,84.80
2018-05-18T17:19:33.004Z,85.90
2018-05-18T17:22:05.259Z,85.90
2018-05-18T17:24:37.519Z,86.30
2018-05-18T17:27:10.639Z,87.00
2018-05-18T17:29:43.025Z,87.00
2018-05-18T17:32:16.102Z,88.20
2018-05-18T17:34:48.489Z,88.20
2018-05-18T17:37:20.868Z,88.60
2018-05-18T17:39:53.335Z,88.80
2018-05-18T17:42:26.139Z,88.30
2018-05-18T17:44:58.369Z,88.20
2018-05-18T17:47:30.752Z,88.90
2018-05-18T17:53:14.586Z,89.50
2018-05-18T17:55:47.487Z,89.70
2018-05-18T17:58:20.504Z,90.20
2018-05-18T18:00:52.739Z,90.20
2018-05-18T18:03:25.076Z,90.40
2018-05-18T18:05:57.974Z,90.60
2018-05-18T18:08:31.062Z,90.90
2018-05-18T18:11:03.437Z,90.80
2018-05-18T18:13:35.796Z,90.60
2018-05-18T18:16:08.219Z,90.60
2018-05-18T18:18:40.634Z,90.40
2018-05-18T18:21:12.790Z,90.10
2018-05-18T18:23:45.190Z,89.80
2018-05-18T18:26:17.809Z,89.10
2018-05-18T18:28:50.258Z,89.40
2018-05-18T18:31:22.567Z,90.00
2018-05-18T18:33:55.691Z,90.00
2018-05-18T18:36:28.174Z,90.10
2018-05-18T18:39:00.540Z,90.30
2018-05-18T18:41:32.903Z,90.60
2018-05-18T18:44:05.292Z,90.80
2018-05-18T18:46:37.688Z,90.90
2018-05-18T18:49:10.185Z,91.10
2018-05-18T18:51:42.466Z,91.70
2018-05-18T18:54:15.090Z,91.50
2018-05-18T18:56:47.575Z,91.30
2018-05-18T18:59:19.812Z,91.50
2018-05-18T19:01:52.493Z,91.50
2018-05-18T19:04:25.507Z,91.90
2018-05-18T19:06:58.241Z,91.70
2018-05-18T19:09:30.759Z,91.70
2018-05-18T19:12:03.231Z,91.90
2018-05-18T19:14:36.342Z,91.80
2018-05-18T19:17:09.599Z,91.90
2018-05-18T19:19:42.043Z,91.90
2018-05-18T19:22:14.368Z,92.00
2018-05-18T19:24:46.740Z,92.30
2018-05-18T19:27:19.316Z,92.40
2018-05-18T19:29:51.629Z,92.60
2018-05-18T19:32:24.056Z,92.50
2018-05-18T19:34:57.068Z,92.90
2018-05-18T19:37:29.451Z,92.90
2018-05-18T19:40:01.843Z,93.00
2018-05-18T19:42:35.544Z,93.20
2018-05-18T19:45:01.693Z,93.20
2018-05-18T19:47:34.220Z,93.50
2018-05-18T19:50:07.522Z,93.50
2018-05-18T19:52:40.147Z,93.50
2018-05-18T19:55:12.778Z,93.70
2018-05-18T19:57:45.322Z,93.80
2018-05-18T20:00:17.624Z,94.00
2018-05-18T20:02:50.241Z,94.10
2018-05-18T20:05:23.423Z,94.40
2018-05-18T20:07:56.011Z,94.40
2018-05-18T20:10:29.069Z,94.60
2018-05-18T20:13:02.331Z,94.60
2018-05-18T20:15:34.915Z,94.60
2018-05-18T20:18:07.335Z,94.80
2018-05-18T20:20:39.763Z,94.90
2018-05-18T20:23:12.749Z,95.00
2018-05-18T20:25:44.964Z,95.00
2018-05-18T20:28:20.160Z,95.50
2018-05-18T20:30:52.639Z,95.50
2018-05-18T20:33:26.031Z,95.30
2018-05-18T20:35:58.350Z,95.80
2018-05-18T20:38:31.300Z,95.40
2018-05-18T20:41:03.707Z,95.40
2018-05-18T20:43:35.993Z,95.50
2018-05-18T20:46:08.554Z,95.40
2018-05-18T20:48:41.154Z,95.60
2018-05-18T20:51:14.204Z,95.60
2018-05-18T20:53:46.568Z,95.50
2018-05-18T20:56:18.948Z,95.40
2018-05-18T20:58:51.440Z,95.50
2018-05-18T21:01:24.215Z,95.60
2018-05-18T21:03:57.407Z,95.70
2018-05-18T21:06:30.623Z,96.10
2018-05-18T21:09:03.072Z,96.00
2018-05-18T21:11:35.741Z,96.20
2018-05-18T21:14:08.757Z,96.20
2018-05-18T21:16:40.977Z,96.20
2018-05-18T21:19:13.451Z,96.20
2018-05-18T21:21:45.765Z,96.10
2018-05-18T21:24:18.907Z,96.60
2018-05-18T21:26:53.494Z,96.60
2018-05-18T21:29:26.489Z,96.80
2018-05-18T21:31:58.940Z,96.60
2018-05-18T21:34:32.048Z,96.80
2018-05-18T21:37:05.178Z,96.90
2018-05-18T21:39:37.338Z,96.90
2018-05-18T21:42:10.294Z,97.00
2018-05-18T21:44:42.514Z,97.00
2018-05-18T21:47:14.871Z,97.10
2018-05-18T21:49:47.225Z,97.20
2018-05-18T21:52:20.286Z,97.80
2018-05-18T21:54:53.545Z,97.90
2018-05-18T21:57:25.925Z,97.60
2018-05-18T21:59:58.184Z,97.70
2018-05-18T22:02:31.237Z,97.90
2018-05-18T22:05:04.371Z,98.10
2018-05-18T22:07:36.932Z,98.10
2018-05-18T22:10:09.078Z,98.10
2018-05-18T22:12:41.497Z,98.30
2018-05-18T22:15:13.807Z,98.40
2018-05-18T22:17:46.227Z,98.40
2018-05-18T22:20:18.546Z,98.40
2018-05-18T22:22:51.697Z,98.50
2018-05-18T22:25:24.837Z,98.50
2018-05-18T22:27:57.917Z,98.60
2018-05-18T22:30:30.230Z,98.60
2018-05-18T22:33:02.675Z,98.80
2018-05-18T22:35:34.991Z,98.70
2018-05-18T22:38:07.385Z,98.70
2018-05-18T22:40:39.804Z,98.60
2018-05-18T22:43:12.047Z,98.70
2018-05-18T22:45:44.575Z,98.80
2018-05-18T22:48:17.750Z,98.90
2018-05-18T22:50:50.143Z,98.90
2018-05-18T22:53:22.567Z,99.00
2018-05-18T22:55:55.718Z,98.90
2018-05-18T22:58:28.033Z,98.90
2018-05-18T23:01:00.486Z,99.00
2018-05-18T23:03:33.571Z,99.10
2018-05-18T23:06:06.616Z,99.10
2018-05-18T23:08:42.211Z,99.00
2018-05-18T23:11:14.621Z,99.10
2018-05-18T23:13:47.010Z,99.00
2018-05-18T23:16:20.204Z,99.00
2018-05-18T23:18:52.584Z,99.00
2018-05-18T23:21:24.955Z,99.10
2018-05-18T23:23:57.416Z,99.10
2018-05-18T23:26:29.752Z,99.10
2018-05-18T23:29:02.176Z,99.10
2018-05-18T23:31:34.480Z,99.10
2018-05-18T23:34:06.867Z,99.20
2018-05-18T23:36:39.182Z,99.20
2018-05-18T23:39:11.668Z,99.30
2018-05-18T23:41:44.033Z,99.20
2018-05-18T23:44:16.380Z,99.30
2018-05-18T23:46:48.720Z,99.40
2018-05-18T23:49:21.245Z,99.60
2018-05-18T23:51:53.797Z,99.60
2018-05-18T23:54:26.946Z,99.50
2018-05-18T23:56:59.118Z,99.50
2018-05-18T23:59:31.462Z,99.70
